»·PEaware :: AAL2901 KSEA-KPHX

AAL2901 :: KSEA-KPHX

FLIGHT INFORMATION

Flight Status: Arrived
Operator:
American Airlines
More flights by this operator :: More flights under this callsign
Pilot: Brian N. (26816)
Aircraft: AIRBUS A321
(A321)
More flights by this aircraft type
Origin: KSEA Seattle-Tacoma Intl
United States
Destination: KPHX Phoenix Sky Harbor Intl
United States
More flights between these airports :: More routes between these airports
Route: SUMMA2 SUMMA LTJ IMB NEERO SLOWN BERYL CORKR TENTS BRUSR1
File this flight plan on PilotEdge
Remarks: RMK / SIMBRIEF
Altitude:
(Current/Filed)
35,000ft
Speed:
(Current/Filed)
439kts
Departed: 06-Feb-21 04:18 PM
Arrived: 06-Feb-21 06:30 PM
Distance/Time
Traveled:
962nm/2:12
Distance/Time
To Go:
Arrived

Flight Plot

Page will automatically refresh every two minutes.

Flight plan parsing failed; only flown route is shown


Map Options




Map Legend


Flown Route
Filed Route
Departure Airport
Arrival Airport
Navaid (VOR, NDB)
Fix

Horizontal Profiles

Position Reports

Time Latitude Longitude Heading Altitude Ground
Speed
06-Feb-21 15:31 47.446736 -122.299826 168 447ft 0kts
06-Feb-21 15:32 47.446736 -122.299826 168 447ft 0kts
06-Feb-21 15:33 47.446736 -122.299826 168 447ft 0kts
06-Feb-21 15:34 47.446736 -122.299826 168 447ft 0kts
06-Feb-21 15:35 47.446736 -122.299826 168 447ft 0kts
06-Feb-21 15:36 47.446736 -122.299826 168 447ft 0kts
06-Feb-21 15:37 47.446736 -122.299826 168 447ft 0kts
06-Feb-21 15:38 47.446736 -122.299826 168 447ft 0kts
06-Feb-21 15:39 47.446736 -122.299826 168 447ft 0kts
06-Feb-21 15:40 47.446736 -122.299826 168 447ft 0kts
06-Feb-21 15:41 47.446736 -122.299826 168 447ft 0kts
06-Feb-21 15:42 47.446736 -122.299826 168 447ft 0kts
06-Feb-21 15:43 47.446736 -122.299826 168 447ft 0kts
06-Feb-21 15:44 47.446736 -122.299826 168 447ft 0kts
06-Feb-21 15:45 47.446736 -122.299826 168 447ft 0kts
06-Feb-21 15:46 47.446736 -122.299826 168 447ft 0kts
06-Feb-21 15:47 47.446736 -122.299826 168 447ft 0kts
06-Feb-21 15:48 47.446736 -122.299826 168 447ft 0kts
06-Feb-21 15:49 47.446736 -122.299826 168 447ft 0kts
06-Feb-21 15:50 47.446736 -122.299826 168 447ft 0kts
06-Feb-21 15:51 47.446736 -122.299826 168 447ft 0kts
06-Feb-21 15:52 47.446736 -122.299826 168 447ft 0kts
06-Feb-21 15:53 47.446736 -122.299826 168 447ft 0kts
06-Feb-21 15:54 47.446736 -122.299826 168 447ft 0kts
06-Feb-21 15:55 47.446736 -122.299826 168 447ft 0kts
06-Feb-21 15:56 47.446736 -122.299826 168 447ft 0kts
06-Feb-21 15:57 47.446736 -122.299826 168 447ft 0kts
06-Feb-21 15:58 47.446736 -122.299826 168 447ft 0kts
06-Feb-21 15:59 47.446736 -122.299826 168 447ft 0kts
06-Feb-21 16:00 47.446736 -122.299826 168 447ft 0kts
06-Feb-21 16:01 47.446736 -122.299826 168 447ft 0kts
06-Feb-21 16:02 47.446736 -122.299826 168 447ft 0kts
06-Feb-21 16:03 47.446736 -122.299826 168 447ft 0kts
06-Feb-21 16:04 47.446736 -122.299826 168 447ft 0kts
06-Feb-21 16:05 47.446736 -122.299826 168 447ft 0kts
06-Feb-21 16:06 47.446736 -122.299826 168 447ft 0kts
06-Feb-21 16:07 47.446736 -122.299826 168 447ft 0kts
06-Feb-21 16:08 47.446736 -122.299826 168 447ft 0kts
06-Feb-21 16:09 47.447155 -122.300425 78 447ft 2kts
06-Feb-21 16:10 47.447130 -122.300610 78 447ft 0kts
06-Feb-21 16:11 47.447130 -122.300609 78 447ft 0kts
06-Feb-21 16:12 47.448252 -122.299945 347 447ft 10kts
06-Feb-21 16:13 47.450280 -122.303858 245 447ft 14kts
06-Feb-21 16:14 47.454105 -122.306218 0 447ft 20kts
06-Feb-21 16:15 47.461044 -122.306171 0 447ft 24kts
06-Feb-21 16:16 47.463488 -122.306279 334 447ft 1kts
06-Feb-21 16:17 47.456960 -122.307831 180 447ft 117kts
06-Feb-21 16:18 47.409742 -122.307491 185 2754ft 174kts
06-Feb-21 16:19 47.354156 -122.308369 185 4110ft 226kts
06-Feb-21 16:20 47.282453 -122.309262 186 6050ft 270kts
06-Feb-21 16:21 47.207163 -122.288815 150 8560ft 301kts
06-Feb-21 16:22 47.127613 -122.243350 168 10518ft 325kts
06-Feb-21 16:23 47.032813 -122.195337 165 11488ft 390kts
06-Feb-21 16:24 46.927321 -122.142487 166 13512ft 411kts
06-Feb-21 16:25 46.816351 -122.087040 167 15389ft 432kts
06-Feb-21 16:27 46.700219 -122.029410 167 17218ft 449kts
06-Feb-21 16:28 46.583171 -121.956487 149 18956ft 473kts
06-Feb-21 16:29 46.473796 -121.843657 149 20595ft 486kts
06-Feb-21 16:30 46.360484 -121.732661 150 22126ft 498kts
06-Feb-21 16:31 46.244805 -121.617957 151 23066ft 507kts
06-Feb-21 16:32 46.127478 -121.502850 151 24195ft 515kts
06-Feb-21 16:33 46.007958 -121.385968 151 25426ft 523kts
06-Feb-21 16:34 45.886988 -121.268404 151 26707ft 527kts
06-Feb-21 16:35 45.764704 -121.150366 152 27760ft 532kts
06-Feb-21 16:36 45.648360 -121.015149 140 28726ft 546kts
06-Feb-21 16:37 45.537443 -120.865517 141 29579ft 550kts
06-Feb-21 16:38 45.424603 -120.716768 140 30468ft 552kts
06-Feb-21 16:39 45.312195 -120.568817 141 31341ft 551kts
06-Feb-21 16:40 45.199909 -120.421651 141 32201ft 549kts
06-Feb-21 16:41 45.087620 -120.275666 141 33026ft 547kts
06-Feb-21 16:41 44.994266 -120.154713 141 33668ft 545kts
06-Feb-21 16:43 44.864109 -119.987114 141 34565ft 539kts
06-Feb-21 16:44 44.752761 -119.844592 141 35037ft 538kts
06-Feb-21 16:44 44.660247 -119.728104 146 34993ft 533kts
06-Feb-21 16:46 44.508349 -119.624831 164 35031ft 516kts
06-Feb-21 16:46 44.399080 -119.556123 162 35055ft 518kts
06-Feb-21 16:47 44.267544 -119.474753 163 35027ft 516kts
06-Feb-21 16:48 44.136326 -119.393782 163 34972ft 514kts
06-Feb-21 16:49 44.005183 -119.313220 163 34968ft 514kts
06-Feb-21 16:50 43.873808 -119.232997 162 35007ft 517kts
06-Feb-21 16:51 43.742411 -119.153073 162 35046ft 514kts
06-Feb-21 16:52 43.612313 -119.074365 163 34985ft 507kts
06-Feb-21 16:53 43.483295 -118.996747 163 34961ft 505kts
06-Feb-21 16:54 43.354122 -118.919251 163 34956ft 507kts
06-Feb-21 16:55 43.224076 -118.841738 163 34966ft 510kts
06-Feb-21 16:56 43.093229 -118.764002 163 34977ft 514kts
06-Feb-21 16:57 42.961989 -118.686488 163 35046ft 514kts
06-Feb-21 16:58 42.830909 -118.609280 162 35025ft 510kts
06-Feb-21 16:59 42.700731 -118.533065 162 34950ft 507kts
06-Feb-21 17:00 42.570696 -118.457362 162 34939ft 509kts
06-Feb-21 17:01 42.440179 -118.381562 162 34944ft 513kts
06-Feb-21 17:02 42.308596 -118.305598 162 35036ft 513kts
06-Feb-21 17:03 42.177611 -118.230257 162 35009ft 512kts
06-Feb-21 17:04 42.046445 -118.155233 162 34959ft 510kts
06-Feb-21 17:05 41.915431 -118.080583 162 34974ft 510kts
06-Feb-21 17:06 41.789864 -117.990554 139 34974ft 524kts
06-Feb-21 17:07 41.687907 -117.850721 136 35016ft 526kts
06-Feb-21 17:08 41.582993 -117.713866 136 35102ft 527kts
06-Feb-21 17:09 41.479428 -117.576365 137 35101ft 523kts
06-Feb-21 17:10 41.376079 -117.441151 137 35030ft 519kts
06-Feb-21 17:11 41.272916 -117.306313 137 35040ft 520kts
06-Feb-21 17:12 41.168943 -117.171104 137 35049ft 523kts
06-Feb-21 17:13 41.064856 -117.036472 137 35121ft 523kts
06-Feb-21 17:14 40.960759 -116.902456 137 35122ft 520kts
06-Feb-21 17:15 40.857092 -116.769426 137 35042ft 518kts
06-Feb-21 17:16 40.753467 -116.637249 137 35044ft 517kts
06-Feb-21 17:17 40.649616 -116.505373 137 35039ft 518kts
06-Feb-21 17:18 40.545287 -116.374813 139 35131ft 517kts
06-Feb-21 17:19 40.438842 -116.248516 139 35125ft 514kts
06-Feb-21 17:20 40.332797 -116.122900 139 35060ft 512kts
06-Feb-21 17:21 40.227072 -115.998419 139 35047ft 511kts
06-Feb-21 17:22 40.120900 -115.873932 139 35047ft 512kts
06-Feb-21 17:23 40.014743 -115.749890 139 35073ft 513kts
06-Feb-21 17:24 39.907997 -115.625932 139 35125ft 513kts
06-Feb-21 17:25 39.801642 -115.502704 139 35121ft 511kts
06-Feb-21 17:26 39.695389 -115.380332 139 35068ft 509kts
06-Feb-21 17:27 39.589416 -115.258675 139 35053ft 508kts
06-Feb-21 17:28 39.483208 -115.137309 139 35052ft 509kts
06-Feb-21 17:29 39.376712 -115.016045 139 35060ft 511kts
06-Feb-21 17:30 39.269566 -114.894725 139 35112ft 511kts
06-Feb-21 17:31 39.162569 -114.774027 139 35122ft 511kts
06-Feb-21 17:32 39.055376 -114.653452 139 35094ft 511kts
06-Feb-21 17:33 38.948553 -114.533949 139 35103ft 508kts
06-Feb-21 17:34 38.841921 -114.415142 139 35031ft 507kts
06-Feb-21 17:35 38.735294 -114.296830 139 35032ft 507kts
06-Feb-21 17:36 38.628338 -114.178598 139 35100ft 506kts
06-Feb-21 17:37 38.521777 -114.061333 139 35090ft 504kts
06-Feb-21 17:38 38.415767 -113.945072 139 35026ft 502kts
06-Feb-21 17:39 38.309812 -113.829408 139 35013ft 501kts
06-Feb-21 17:40 38.203444 -113.713755 139 35016ft 502kts
06-Feb-21 17:41 38.096766 -113.598228 139 35049ft 504kts
06-Feb-21 17:42 37.990017 -113.483080 139 35059ft 505kts
06-Feb-21 17:43 37.879557 -113.374067 155 35104ft 498kts
06-Feb-21 17:44 37.753812 -113.305225 159 35086ft 491kts
06-Feb-21 17:45 37.628954 -113.235324 158 35046ft 489kts
06-Feb-21 17:46 37.504332 -113.166945 158 35048ft 491kts
06-Feb-21 17:47 37.378530 -113.097630 158 35064ft 495kts
06-Feb-21 17:48 37.251610 -113.028174 158 35152ft 496kts
06-Feb-21 17:49 37.125323 -112.959302 158 35180ft 493kts
06-Feb-21 17:50 37.000225 -112.891285 158 35106ft 489kts
06-Feb-21 17:51 36.875262 -112.823514 158 35092ft 488kts
06-Feb-21 17:52 36.750351 -112.756166 158 35095ft 490kts
06-Feb-21 17:53 36.624652 -112.688568 158 35163ft 491kts
06-Feb-21 17:54 36.499258 -112.621319 158 35185ft 488kts
06-Feb-21 17:55 36.375302 -112.555189 158 35120ft 483kts
06-Feb-21 17:56 36.252212 -112.489641 159 35127ft 481kts
06-Feb-21 17:57 36.128539 -112.424090 159 35143ft 485kts
06-Feb-21 17:58 35.998402 -112.406091 190 35093ft 463kts
06-Feb-21 17:59 35.872255 -112.419204 187 34089ft 450kts
06-Feb-21 18:00 35.748042 -112.429515 188 32983ft 444kts
06-Feb-21 18:01 35.625981 -112.440202 188 31189ft 436kts
06-Feb-21 18:02 35.506686 -112.450522 187 29402ft 427kts
06-Feb-21 18:03 35.388180 -112.431433 173 29165ft 428kts
06-Feb-21 18:04 35.270822 -112.408409 174 29164ft 426kts
06-Feb-21 18:05 35.153855 -112.384539 173 28926ft 421kts
06-Feb-21 18:06 35.037678 -112.359331 173 26194ft 421kts
06-Feb-21 18:08 34.926303 -112.335225 173 25220ft 402kts
06-Feb-21 18:09 34.817189 -112.311527 173 24041ft 391kts
06-Feb-21 18:10 34.712053 -112.288325 173 22662ft 378kts
06-Feb-21 18:11 34.610112 -112.265959 173 21300ft 365kts
06-Feb-21 18:12 34.511690 -112.244436 173 19983ft 353kts
06-Feb-21 18:13 34.416296 -112.222569 171 18583ft 351kts
06-Feb-21 18:14 34.320739 -112.197535 170 16955ft 350kts
06-Feb-21 18:15 34.225492 -112.172948 170 15313ft 347kts
06-Feb-21 18:16 34.132581 -112.149000 170 13771ft 335kts
06-Feb-21 18:17 34.041490 -112.140654 189 12172ft 326kts
06-Feb-21 18:18 33.953376 -112.152069 187 10821ft 310kts
06-Feb-21 18:19 33.868508 -112.165079 191 9234ft 301kts
06-Feb-21 18:20 33.787939 -112.182591 190 8045ft 281kts
06-Feb-21 18:21 33.716456 -112.197753 190 7720ft 252kts
06-Feb-21 18:21 33.658902 -112.209881 190 6537ft 249kts
06-Feb-21 18:23 33.582610 -112.225970 190 6012ft 244kts
06-Feb-21 18:24 33.520049 -112.239495 190 5059ft 217kts
06-Feb-21 18:24 33.471161 -112.248264 178 4108ft 198kts
06-Feb-21 18:26 33.440821 -112.198099 87 3916ft 170kts
06-Feb-21 18:26 33.440807 -112.151293 89 3178ft 167kts
06-Feb-21 18:27 33.440825 -112.098673 89 2339ft 155kts
06-Feb-21 18:28 33.440826 -112.046972 89 1508ft 153kts
06-Feb-21 18:29 33.440806 -112.006178 103 1149ft 30kts
06-Feb-21 18:30 33.439747 -112.001202 87 1149ft 0kts
06-Feb-21 18:31 33.439633 -112.000974 146 1149ft 11kts
06-Feb-21 18:32 33.437143 -111.997691 83 1149ft 4kts
06-Feb-21 18:33 33.437144 -111.997384 91 1149ft 0kts
06-Feb-21 18:34 33.437144 -111.997384 91 1149ft 0kts
06-Feb-21 18:35 33.437144 -111.997384 91 1149ft 0kts

Navigation Log

Ident Type
Flight plan parsing failed, navigation log unavailable